Time;durP1;ratioP1;P1;durP2;ratioP2;P2;SDS_P1;SDS_P2;PMS_P1;PMS_P2;Temp;Humidity;BMP_temperature;BMP_pressure;BME280_temperature;BME280_humidity;BME280_pressure;Samples;Min_cycle;Max_cycle;Signal;HPM_P1;HPM_P2
2022/03/14 00:02:25;;;;;;;18.98;17.17;;;;;;;;;;12552149;28;20508;-75
2022/03/14 00:08:31;;;;;;;18.25;16.65;;;;;;;;;;12551702;28;20067;-75
2022/03/14 00:14:32;;;;;;;17.70;15.93;;;;;;;;;;12551611;28;20397;-74
2022/03/14 00:20:34;;;;;;;17.80;16.15;;;;;;;;;;12551355;28;20045;-75
2022/03/14 00:26:36;;;;;;;15.20;13.85;;;;;;;;;;12552247;28;20417;-75
2022/03/14 00:32:40;;;;;;;18.42;16.70;;;;;;;;;;12551672;28;20037;-75
2022/03/14 00:38:42;;;;;;;20.23;18.33;;;;;;;;;;12550365;28;20052;-75
2022/03/14 00:44:44;;;;;;;19.38;17.58;;;;;;;;;;12551955;28;20033;-75
2022/03/14 00:50:46;;;;;;;17.50;15.90;;;;;;;;;;12550047;28;20036;-76
2022/03/14 00:56:48;;;;;;;15.43;14.02;;;;;;;;;;12551056;28;20504;-76
2022/03/14 01:02:50;;;;;;;15.15;13.75;;;;;;;;;;12550057;28;20032;-76
2022/03/14 01:08:52;;;;;;;15.27;13.87;;;;;;;;;;12549259;28;20037;-76
2022/03/14 01:14:54;;;;;;;17.60;15.85;;;;;;;;;;12550150;28;20296;-76
2022/03/14 01:20:56;;;;;;;16.20;14.70;;;;;;;;;;12564092;28;20060;-76
2022/03/14 01:26:58;;;;;;;17.67;16.02;;;;;;;;;;12549571;28;20029;-76
2022/03/14 01:33:00;;;;;;;14.93;13.52;;;;;;;;;;12548661;28;20029;-76
2022/03/14 01:39:01;;;;;;;13.68;12.45;;;;;;;;;;12548420;28;20048;-75
2022/03/14 01:45:04;;;;;;;15.00;13.57;;;;;;;;;;12547475;28;20116;-75
2022/03/14 01:51:06;;;;;;;;;;;;;;;;;;12548458;28;20033;-75
2022/03/14 01:57:08;;;;;;;14.73;13.32;;;;;;;;;;12529934;28;20266;-75
2022/03/14 02:03:10;;;;;;;15.93;14.40;;;;;;;;;;12547392;28;20040;-75
2022/03/14 02:09:12;;;;;;;15.05;13.55;;;;;;;;;;12547644;28;20041;-75
2022/03/14 02:15:13;;;;;;;14.10;12.80;;;;;;;;;;12561880;28;20072;-75
2022/03/14 02:21:16;;;;;;;14.93;13.63;;;;;;;;;;12558203;28;20044;-78
2022/03/14 02:27:18;;;;;;;14.50;13.13;;;;;;;;;;12528984;28;20032;-78
2022/03/14 02:33:21;;;;;;;15.43;14.00;;;;;;;;;;12545984;28;20040;-78
2022/03/14 02:39:22;;;;;;;15.90;14.37;;;;;;;;;;12546044;28;20036;-78
2022/03/14 02:45:24;;;;;;;12.57;11.48;;;;;;;;;;12546592;28;20047;-78
2022/03/14 02:51:26;;;;;;;14.15;12.88;;;;;;;;;;12545868;28;20048;-78
2022/03/14 02:57:28;;;;;;;13.18;11.93;;;;;;;;;;12558091;28;20064;-78
2022/03/14 03:03:30;;;;;;;14.90;13.50;;;;;;;;;;12543999;28;20033;-78
2022/03/14 03:09:32;;;;;;;15.47;13.97;;;;;;;;;;12527401;28;20683;-78
2022/03/14 03:15:37;;;;;;;15.25;13.85;;;;;;;;;;12558512;28;20307;-78
2022/03/14 03:21:39;;;;;;;13.63;12.43;;;;;;;;;;12544105;28;20056;-78
2022/03/14 03:27:41;;;;;;;14.70;13.40;;;;;;;;;;12544390;28;20033;-78
2022/03/14 03:33:44;;;;;;;13.82;12.52;;;;;;;;;;12544319;28;20037;-77
2022/03/14 03:39:46;;;;;;;12.98;11.70;;;;;;;;;;12543979;28;20040;-77
2022/03/14 03:45:48;;;;;;;16.25;14.73;;;;;;;;;;12544712;28;20187;-77
2022/03/14 03:51:50;;;;;;;15.10;13.70;;;;;;;;;;12544544;28;20037;-76
2022/03/14 03:57:51;;;;;;;12.57;11.57;;;;;;;;;;12547297;28;20492;-76
2022/03/14 04:03:58;;;;;;;12.25;11.10;;;;;;;;;;12553395;28;20056;-75
2022/03/14 04:09:59;;;;;;;12.88;11.77;;;;;;;;;;12542432;28;20044;-76
2022/03/14 04:16:01;;;;;;;11.40;10.40;;;;;;;;;;12543474;28;20061;-77
2022/03/14 04:22:03;;;;;;;10.93;9.93;;;;;;;;;;12541933;28;20370;-76
2022/03/14 04:28:05;;;;;;;11.48;10.45;;;;;;;;;;12541655;28;20032;-76
2022/03/14 04:34:07;;;;;;;12.00;11.00;;;;;;;;;;12542475;28;20048;-76
2022/03/14 04:40:11;;;;;;;11.93;10.83;;;;;;;;;;12551651;28;20041;-76
2022/03/14 04:46:12;;;;;;;10.63;9.73;;;;;;;;;;12551081;28;20033;-77
2022/03/14 04:52:15;;;;;;;12.48;11.35;;;;;;;;;;12551252;28;20238;-76
2022/03/14 04:58:17;;;;;;;12.90;11.80;;;;;;;;;;12550911;28;20405;-76
2022/03/14 05:04:19;;;;;;;10.25;9.35;;;;;;;;;;12532986;28;20496;-77
2022/03/14 05:10:21;;;;;;;12.65;11.55;;;;;;;;;;12549056;28;20396;-77
2022/03/14 05:16:23;;;;;;;11.93;10.93;;;;;;;;;;12550463;28;20071;-77
2022/03/14 05:22:24;;;;;;;11.23;10.27;;;;;;;;;;12552470;28;20064;-79
2022/03/14 05:28:26;;;;;;;12.10;11.13;;;;;;;;;;12549206;28;20064;-78
2022/03/14 05:34:28;;;;;;;11.38;10.40;;;;;;;;;;12549840;28;20039;-78
2022/03/14 05:40:30;;;;;;;11.43;10.13;;;;;;;;;;12549859;28;20045;-79
2022/03/14 05:46:32;;;;;;;11.88;10.88;;;;;;;;;;12547562;28;20041;-79
2022/03/14 05:52:34;;;;;;;9.30;8.40;;;;;;;;;;12531222;28;20390;-78
2022/03/14 05:58:35;;;;;;;14.35;13.05;;;;;;;;;;12559825;28;20045;-78
2022/03/14 06:04:39;;;;;;;14.20;12.90;;;;;;;;;;12546320;28;20032;-79
2022/03/14 06:10:42;;;;;;;13.52;12.30;;;;;;;;;;12547628;28;20501;-78
2022/03/14 06:16:44;;;;;;;13.80;12.50;;;;;;;;;;12545938;28;20060;-78
2022/03/14 06:22:46;;;;;;;14.07;12.80;;;;;;;;;;12545177;28;20048;-78
2022/03/14 06:28:48;;;;;;;14.23;12.90;;;;;;;;;;12528602;28;20035;-78
2022/03/14 06:34:50;;;;;;;12.55;11.45;;;;;;;;;;12545956;28;20284;-79
2022/03/14 06:40:56;;;;;;;11.93;10.93;;;;;;;;;;12539280;28;20056;-76
2022/03/14 06:46:58;;;;;;;10.23;9.23;;;;;;;;;;12513202;28;20030;-80
2022/03/14 06:53:00;;;;;;;18.60;12.32;;;;;;;;;;12498448;28;20025;-80
2022/03/14 06:59:01;;;;;;;11.27;10.25;;;;;;;;;;12524266;28;20544;-79
2022/03/14 07:05:03;;;;;;;11.38;10.38;;;;;;;;;;12511356;28;20030;-79
2022/03/14 07:11:05;;;;;;;11.90;10.85;;;;;;;;;;12515123;28;20041;-79
2022/03/14 07:17:07;;;;;;;12.70;11.45;;;;;;;;;;12501841;28;20045;-79
2022/03/14 07:23:10;;;;;;;11.38;10.38;;;;;;;;;;12509494;28;20508;-79
2022/03/14 07:29:12;;;;;;;14.43;13.07;;;;;;;;;;12517891;28;20393;-80
2022/03/14 07:35:14;;;;;;;17.05;15.35;;;;;;;;;;12518511;28;20367;-78
2022/03/14 07:41:16;;;;;;;16.05;14.40;;;;;;;;;;12522346;28;20045;-79
2022/03/14 07:47:17;;;;;;;15.07;13.60;;;;;;;;;;12523139;28;20044;-79
2022/03/14 07:53:19;;;;;;;14.02;12.73;;;;;;;;;;12517266;28;20025;-80
2022/03/14 07:59:21;;;;;;;13.18;11.88;;;;;;;;;;12517732;28;20072;-78
2022/03/14 08:05:26;;;;;;;11.93;10.93;;;;;;;;;;12512291;28;20021;-78
2022/03/14 08:11:29;;;;;;;10.48;9.57;;;;;;;;;;12518259;28;20033;-79
2022/03/14 08:17:30;;;;;;;8.77;8.00;;;;;;;;;;12519486;28;20041;-79
2022/03/14 08:23:34;;;;;;;10.38;9.27;;;;;;;;;;12524530;28;20037;-77
2022/03/14 08:29:36;;;;;;;9.95;9.05;;;;;;;;;;12522089;28;20033;-78
2022/03/14 08:35:38;;;;;;;10.10;9.20;;;;;;;;;;12535581;28;20132;-79
2022/03/14 08:41:40;;;;;;;7.47;6.88;;;;;;;;;;12534926;28;20275;-79
2022/03/14 08:47:42;;;;;;;7.20;6.55;;;;;;;;;;12530364;28;20044;-79
2022/03/14 08:53:45;;;;;;;7.53;6.80;;;;;;;;;;12522783;28;20029;-79
2022/03/14 08:59:48;;;;;;;6.83;6.33;;;;;;;;;;12527159;28;20049;-80
2022/03/14 09:05:50;;;;;;;6.07;5.57;;;;;;;;;;12530005;28;20037;-80
2022/03/14 09:11:52;;;;;;;4.30;4.00;;;;;;;;;;12528594;28;20037;-80
2022/03/14 09:17:57;;;;;;;4.28;3.88;;;;;;;;;;12525683;28;20048;-79
2022/03/14 09:23:59;;;;;;;5.38;4.97;;;;;;;;;;12519304;28;20429;-79
2022/03/14 09:30:01;;;;;;;4.23;3.73;;;;;;;;;;12492240;28;20038;-79
2022/03/14 09:36:02;;;;;;;8.88;5.00;;;;;;;;;;12520723;28;20402;-77
2022/03/14 09:42:05;;;;;;;5.03;3.83;;;;;;;;;;12514545;28;20400;-80
2022/03/14 09:48:09;;;;;;;4.38;3.58;;;;;;;;;;12518398;28;20048;-78
2022/03/14 09:54:12;;;;;;;3.55;3.05;;;;;;;;;;12529606;28;20096;-81
2022/03/14 10:00:14;;;;;;;4.82;4.43;;;;;;;;;;12519701;28;20044;-79
2022/03/14 10:06:15;;;;;;;4.80;3.80;;;;;;;;;;12526930;28;20400;-79
2022/03/14 10:12:20;;;;;;;3.60;3.20;;;;;;;;;;12520485;28;20036;-79
2022/03/14 10:18:21;;;;;;;;;;;;;;;;;;12524471;28;20410;-79
2022/03/14 10:24:24;;;;;;;3.90;3.58;;;;;;;;;;12502748;28;19909;-80
2022/03/14 10:30:27;;;;;;;4.53;4.10;;;;;;;;;;12520894;28;20348;-79
2022/03/14 10:36:45;;;;;;;3.60;3.30;;;;;;;;;;12505198;28;20032;-79
2022/03/14 10:42:47;;;;;;;4.15;3.85;;;;;;;;;;12505033;28;20045;-80
2022/03/14 10:48:49;;;;;;;4.55;3.15;;;;;;;;;;12523320;28;20393;-78
2022/03/14 10:54:51;;;;;;;3.80;3.50;;;;;;;;;;12546042;28;20044;-78
2022/03/14 11:00:54;;;;;;;4.17;3.80;;;;;;;;;;12528042;28;20668;-79
2022/03/14 11:07:00;;;;;;;3.28;2.97;;;;;;;;;;12530990;28;20029;-79
2022/03/14 11:13:01;;;;;;;4.95;4.43;;;;;;;;;;12526849;28;20045;-79
2022/03/14 11:19:03;;;;;;;4.38;4.05;;;;;;;;;;12513325;28;20044;-78
2022/03/14 11:25:05;;;;;;;4.53;3.77;;;;;;;;;;12518814;28;20040;-79
2022/03/14 11:31:09;;;;;;;4.50;3.80;;;;;;;;;;12520156;28;20033;-80
2022/03/14 11:37:10;;;;;;;;;;;;;;;;;;12526237;28;20358;-81
2022/03/14 11:43:13;;;;;;;6.05;5.55;;;;;;;;;;12497462;28;19968;-78
2022/03/14 11:49:16;;;;;;;4.10;3.70;;;;;;;;;;12543845;28;20390;-86
2022/03/14 11:55:22;;;;;;;5.35;4.85;;;;;;;;;;12531164;28;20497;-76
2022/03/14 12:01:26;;;;;;;5.50;5.00;;;;;;;;;;12534225;28;20052;-79
2022/03/14 12:07:29;;;;;;;5.53;5.00;;;;;;;;;;12534734;28;20045;-84
2022/03/14 12:13:42;;;;;;;3.83;3.00;;;;;;;;;;12525887;28;20064;-81
2022/03/14 12:19:47;;;;;;;5.88;4.93;;;;;;;;;;12512290;28;20045;-81
2022/03/14 12:25:48;;;;;;;5.15;4.75;;;;;;;;;;12527354;28;20037;-78
2022/03/14 12:32:10;;;;;;;5.78;5.22;;;;;;;;;;12543666;28;20029;-78
2022/03/14 12:38:21;;;;;;;4.97;4.57;;;;;;;;;;12535949;28;20037;-79
2022/03/14 12:44:24;;;;;;;3.65;3.38;;;;;;;;;;12515770;28;20025;-80
2022/03/14 12:50:45;;;;;;;3.88;3.55;;;;;;;;;;12534208;28;20505;-78
2022/03/14 12:56:47;;;;;;;5.45;4.90;;;;;;;;;;12524562;28;20038;-78
2022/03/14 13:02:49;;;;;;;5.13;4.43;;;;;;;;;;12501100;28;20586;-77
2022/03/14 13:08:51;;;;;;;6.28;5.60;;;;;;;;;;12503982;28;20032;-75
2022/03/14 13:15:03;;;;;;;6.43;5.82;;;;;;;;;;12549806;28;20068;-75
2022/03/14 13:21:14;;;;;;;4.25;3.85;;;;;;;;;;12548989;28;20378;-77
2022/03/14 13:27:24;;;;;;;5.97;5.50;;;;;;;;;;12548302;28;20052;-76
2022/03/14 13:33:33;;;;;;;5.32;4.82;;;;;;;;;;12549334;28;20032;-78
2022/03/14 13:39:34;;;;;;;6.47;5.88;;;;;;;;;;12550700;28;20056;-78
2022/03/14 13:45:36;;;;;;;5.83;5.33;;;;;;;;;;12548349;28;20505;-78
2022/03/14 13:51:39;;;;;;;6.20;5.60;;;;;;;;;;12548508;28;20037;-78
2022/03/14 13:57:41;;;;;;;6.40;5.43;;;;;;;;;;12546536;28;20037;-78
2022/03/14 14:03:45;;;;;;;5.65;5.03;;;;;;;;;;12547837;28;20033;-80
2022/03/14 14:09:47;;;;;;;4.85;4.45;;;;;;;;;;12567102;28;20036;-79
2022/03/14 14:15:50;;;;;;;6.82;6.22;;;;;;;;;;12546928;28;20524;-80
2022/03/14 14:21:55;;;;;;;5.75;5.07;;;;;;;;;;12529085;28;20045;-80
2022/03/14 14:28:01;;;;;;;9.07;8.20;;;;;;;;;;12546179;28;20045;-77
2022/03/14 14:34:03;;;;;;;5.43;4.93;;;;;;;;;;12546178;28;20029;-79
2022/03/14 14:40:04;;;;;;;6.53;4.87;;;;;;;;;;12552729;28;20041;-79
2022/03/14 14:46:07;;;;;;;6.93;6.20;;;;;;;;;;12545787;28;20041;-79
2022/03/14 14:52:09;;;;;;;5.75;5.13;;;;;;;;;;12545146;28;20037;-76
2022/03/14 14:58:11;;;;;;;6.35;5.75;;;;;;;;;;12545142;28;20543;-80
2022/03/14 15:04:13;;;;;;;7.83;6.13;;;;;;;;;;12545996;28;20033;-80
2022/03/14 15:10:14;;;;;;;4.73;4.33;;;;;;;;;;12543963;28;20048;-81
2022/03/14 15:16:16;;;;;;;5.60;5.03;;;;;;;;;;12546064;28;20060;-81
2022/03/14 15:22:18;;;;;;;6.95;5.45;;;;;;;;;;12543880;28;20495;-82
2022/03/14 15:28:20;;;;;;;6.13;4.97;;;;;;;;;;12543552;28;20029;-80
2022/03/14 15:34:21;;;;;;;5.97;5.30;;;;;;;;;;12545782;28;20033;-82
2022/03/14 15:40:25;;;;;;;8.05;5.82;;;;;;;;;;12547468;28;20048;-82
2022/03/14 15:46:28;;;;;;;5.95;5.40;;;;;;;;;;12531593;28;20048;-76
2022/03/14 15:52:31;;;;;;;6.53;5.88;;;;;;;;;;12536452;28;20041;-81
2022/03/14 15:58:33;;;;;;;6.32;5.75;;;;;;;;;;12545676;28;20048;-81
2022/03/14 16:04:35;;;;;;;6.97;6.17;;;;;;;;;;12542511;28;20021;-84
2022/03/14 16:10:37;;;;;;;7.03;5.43;;;;;;;;;;12526319;28;20497;-76
2022/03/14 16:16:39;;;;;;;6.80;6.07;;;;;;;;;;12543264;28;20060;-81
2022/03/14 16:22:41;;;;;;;5.07;4.67;;;;;;;;;;12562017;28;20379;-81
2022/03/14 16:28:42;;;;;;;6.32;5.30;;;;;;;;;;12542176;28;20040;-75
2022/03/14 16:34:45;;;;;;;5.80;5.30;;;;;;;;;;12552941;28;20040;-80
2022/03/14 16:40:46;;;;;;;5.95;5.45;;;;;;;;;;12550515;28;20045;-77
2022/03/14 16:46:49;;;;;;;5.47;4.97;;;;;;;;;;12551326;28;20033;-78
2022/03/14 16:52:51;;;;;;;5.63;5.00;;;;;;;;;;12553236;28;20041;-80
2022/03/14 16:58:53;;;;;;;4.70;3.70;;;;;;;;;;12553420;28;20048;-79
2022/03/14 17:04:54;;;;;;;7.40;6.72;;;;;;;;;;12549574;28;20025;-78
2022/03/14 17:10:56;;;;;;;6.40;5.80;;;;;;;;;;12550478;28;20374;-76
2022/03/14 17:16:59;;;;;;;5.88;5.38;;;;;;;;;;12551150;28;20083;-75
2022/03/14 17:23:02;;;;;;;5.53;5.03;;;;;;;;;;12562046;28;20052;-76
2022/03/14 17:29:04;;;;;;;7.45;6.72;;;;;;;;;;12549456;28;20041;-76
2022/03/14 17:35:09;;;;;;;7.00;6.30;;;;;;;;;;12549741;28;20025;-75
2022/03/14 17:41:10;;;;;;;7.93;7.22;;;;;;;;;;12555136;28;20061;-75
2022/03/14 17:47:12;;;;;;;7.55;6.72;;;;;;;;;;12552614;28;20045;-78
2022/03/14 17:53:14;;;;;;;7.65;6.85;;;;;;;;;;12548516;28;20037;-78
2022/03/14 17:59:15;;;;;;;7.93;7.18;;;;;;;;;;12554697;28;20049;-78
2022/03/14 18:05:17;;;;;;;8.13;7.22;;;;;;;;;;12548006;28;20025;-78
2022/03/14 18:11:20;;;;;;;10.32;9.40;;;;;;;;;;12547213;28;20393;-78
2022/03/14 18:17:22;;;;;;;13.02;11.73;;;;;;;;;;12546053;28;20064;-78
2022/03/14 18:23:24;;;;;;;14.47;13.07;;;;;;;;;;12546666;28;20048;-79
2022/03/14 18:29:26;;;;;;;13.23;11.82;;;;;;;;;;12546578;28;20029;-78
2022/03/14 18:35:28;;;;;;;13.10;11.82;;;;;;;;;;12545249;28;20048;-79
2022/03/14 18:41:30;;;;;;;10.97;10.00;;;;;;;;;;12545066;28;20505;-78
2022/03/14 18:47:33;;;;;;;8.30;7.60;;;;;;;;;;12546784;28;20386;-79
2022/03/14 18:53:34;;;;;;;15.90;14.32;;;;;;;;;;12543730;28;20029;-79
2022/03/14 18:59:36;;;;;;;10.90;9.77;;;;;;;;;;12545227;28;20037;-78
2022/03/14 19:05:38;;;;;;;9.18;8.27;;;;;;;;;;12549505;28;20047;-79
2022/03/14 19:11:40;;;;;;;9.57;8.67;;;;;;;;;;12542825;28;20033;-79
2022/03/14 19:17:43;;;;;;;7.95;7.22;;;;;;;;;;12544958;28;20049;-82
2022/03/14 19:23:44;;;;;;;8.48;7.68;;;;;;;;;;12543679;28;20064;-80
2022/03/14 19:29:47;;;;;;;7.57;6.85;;;;;;;;;;12543946;28;20035;-83
2022/03/14 19:35:50;;;;;;;10.13;9.10;;;;;;;;;;12543491;28;20033;-85
2022/03/14 19:41:51;;;;;;;;;;;;;;;;;;12554864;28;20048;-86
2022/03/14 19:47:53;;;;;;;15.98;14.55;;;;;;;;;;12526423;28;19913;-85
2022/03/14 19:53:54;;;;;;;16.48;14.80;;;;;;;;;;12552883;28;20059;-80
2022/03/14 19:59:56;;;;;;;12.98;11.77;;;;;;;;;;12548647;28;20024;-83
2022/03/14 20:06:14;;;;;;;14.23;12.90;;;;;;;;;;12548283;28;20041;-80
2022/03/14 20:12:23;;;;;;;18.15;16.55;;;;;;;;;;12536867;28;20029;-82
2022/03/14 20:18:24;;;;;;;18.15;16.50;;;;;;;;;;12552062;28;20470;-83
2022/03/14 20:24:30;;;;;;;17.05;15.45;;;;;;;;;;12550506;28;20041;-82
2022/03/14 20:30:32;;;;;;;18.75;16.85;;;;;;;;;;12551723;28;20029;-81
2022/03/14 20:36:33;;;;;;;17.30;15.65;;;;;;;;;;12534306;28;20033;-78
2022/03/14 20:42:35;;;;;;;16.55;15.05;;;;;;;;;;12555127;28;20036;-82
2022/03/14 20:48:38;;;;;;;14.15;12.80;;;;;;;;;;12551055;28;20469;-83
2022/03/14 20:54:40;;;;;;;16.08;14.45;;;;;;;;;;12550774;28;20036;-80
2022/03/14 21:00:42;;;;;;;17.90;16.13;;;;;;;;;;12549219;28;20045;-80
2022/03/14 21:06:46;;;;;;;15.68;14.20;;;;;;;;;;12549413;28;20393;-81
2022/03/14 21:12:48;;;;;;;15.55;14.10;;;;;;;;;;12532436;28;20033;-81
2022/03/14 21:18:49;;;;;;;15.77;14.27;;;;;;;;;;12548989;28;20053;-77
2022/03/14 21:24:51;;;;;;;17.45;15.82;;;;;;;;;;12549461;28;20056;-79
2022/03/14 21:30:55;;;;;;;13.88;12.50;;;;;;;;;;12549324;28;20258;-80
2022/03/14 21:36:57;;;;;;;16.33;14.70;;;;;;;;;;12547991;28;20063;-79
2022/03/14 21:42:59;;;;;;;15.35;13.90;;;;;;;;;;12547133;28;20052;-78
2022/03/14 21:49:01;;;;;;;14.67;13.30;;;;;;;;;;12530507;28;20044;-79
2022/03/14 21:55:04;;;;;;;16.23;14.73;;;;;;;;;;12547138;28;20052;-79
2022/03/14 22:01:05;;;;;;;16.27;14.85;;;;;;;;;;12542310;28;20037;-79
2022/03/14 22:07:07;;;;;;;19.05;17.13;;;;;;;;;;12546523;28;20032;-79
2022/03/14 22:13:10;;;;;;;34.28;30.17;;;;;;;;;;12557870;28;20048;-79
2022/03/14 22:19:14;;;;;;;24.58;22.05;;;;;;;;;;12547626;28;20057;-79
2022/03/14 22:25:16;;;;;;;21.35;19.35;;;;;;;;;;12546960;28;20029;-78
2022/03/14 22:31:19;;;;;;;21.73;19.67;;;;;;;;;;12546479;28;20385;-80
2022/03/14 22:37:20;;;;;;;;;;;;;;;;;;12548342;28;20389;-78
2022/03/14 22:43:22;;;;;;;20.75;18.75;;;;;;;;;;12528455;28;19927;-79
2022/03/14 22:49:24;;;;;;;20.97;18.97;;;;;;;;;;12545495;28;20033;-79
2022/03/14 22:55:28;;;;;;;21.10;19.08;;;;;;;;;;12545868;28;20033;-78
2022/03/14 23:01:30;;;;;;;19.10;17.30;;;;;;;;;;12543924;28;20048;-81
2022/03/14 23:13:55;;;;;;;19.23;17.43;;;;;;;;;;12544312;28;20085;-80
2022/03/14 23:19:57;;;;;;;17.95;16.45;;;;;;;;;;12551304;28;20044;-80
2022/03/14 23:26:00;;;;;;;18.00;16.40;;;;;;;;;;12543996;28;20029;-80
2022/03/14 23:32:02;;;;;;;17.85;16.15;;;;;;;;;;12542884;28;20025;-80
2022/03/14 23:38:06;;;;;;;20.37;18.57;;;;;;;;;;12543702;28;20033;-80
2022/03/14 23:44:08;;;;;;;19.90;18.00;;;;;;;;;;12543800;28;20053;-80
2022/03/14 23:50:10;;;;;;;20.38;18.35;;;;;;;;;;12544373;28;20037;-80
2022/03/14 23:56:14;;;;;;;19.48;17.73;;;;;;;;;;12543807;28;20275;-80
